Time;durP1;ratioP1;P1;durP2;ratioP2;P2;SDS_P1;SDS_P2;PMS_P1;PMS_P2;Temp;Humidity;BMP_temperature;BMP_pressure;BME280_temperature;BME280_humidity;BME280_pressure;Samples;Min_cycle;Max_cycle;Signal;HPM_P1;HPM_P2
2022/02/01 00:00:56;;;;;;;1.83;1.50;;;;;;;4.01;71.83;94974.41;5051037;28;20043;-68
2022/02/01 00:03:23;;;;;;;3.15;1.90;;;;;;;4.25;70.78;94964.88;5051416;28;20031;-67
2022/02/01 00:08:28;;;;;;;1.92;1.58;;;;;;;3.89;72.07;94957.06;5050909;28;20017;-67
2022/02/01 00:35:25;;;;;;;2.80;1.58;;;;;;;3.37;75.52;94949.47;5050908;28;20040;-67
2022/02/01 00:37:58;;;;;;;1.42;1.33;;;;;;;3.27;74.97;94929.22;5050548;28;20029;-67
2022/02/01 00:40:24;;;;;;;2.45;1.35;;;;;;;3.37;75.76;94975.75;5032533;28;20063;-67
2022/02/01 00:42:49;;;;;;;2.40;1.95;;;;;;;3.99;73.02;94972.03;5050336;28;20021;-68
2022/02/01 00:45:15;;;;;;;0.77;0.77;;;;;;;3.19;76.04;94973.66;5036614;28;20058;-67
2022/02/01 00:47:42;;;;;;;1.45;1.17;;;;;;;2.97;77.20;94961.53;5032689;28;20028;-67
2022/02/01 00:50:11;;;;;;;2.53;2.22;;;;;;;3.54;75.86;94962.38;5032310;28;20057;-67
2022/02/01 00:52:37;;;;;;;1.70;1.60;;;;;;;3.21;75.68;94967.06;5032640;28;20079;-67
2022/02/01 00:55:03;;;;;;;3.45;0.63;;;;;;;2.78;77.61;94963.06;5050476;28;20555;-67
2022/02/01 00:57:28;;;;;;;2.05;1.85;;;;;;;3.27;75.62;94954.72;5050309;28;20044;-66
2022/02/01 00:59:53;;;;;;;3.00;1.80;;;;;;;3.10;76.06;94982.03;5035804;28;20405;-67
2022/02/01 01:02:19;;;;;;;5.32;2.88;;;;;;;3.27;75.47;94954.72;5032637;28;20389;-67
2022/02/01 01:04:44;;;;;;;3.80;3.00;;;;;;;3.46;74.77;94997.06;5032568;28;20108;-67
2022/02/01 01:07:10;;;;;;;5.03;3.28;;;;;;;3.68;75.07;94996.81;5032564;28;20044;-67
2022/02/01 01:09:35;;;;;;;3.83;3.47;;;;;;;3.94;74.07;95003.63;5032392;28;20086;-67
2022/02/01 01:12:01;;;;;;;3.85;3.00;;;;;;;3.31;74.80;94964.44;5032249;28;20033;-67
2022/02/01 01:44:08;;;;;;;8.35;4.38;;;;;;;3.28;75.49;94995.75;5052318;28;20440;-67
2022/02/01 01:54:50;;;;;;;5.10;2.75;;;;;;;2.84;76.81;95040.81;5052629;28;20089;-67
2022/02/01 01:57:16;;;;;;;4.68;4.07;;;;;;;2.73;75.82;95015.56;5052220;28;20501;-67
2022/02/01 01:59:41;;;;;;;5.72;4.13;;;;;;;3.19;76.62;95069.06;5051696;28;20047;-67
2022/02/01 02:02:07;;;;;;;4.47;3.83;;;;;;;2.93;76.05;94999.09;5052213;28;20057;-68
2022/02/01 02:04:32;;;;;;;4.47;4.00;;;;;;;3.53;75.55;95061.50;5052364;28;20025;-67
2022/02/01 02:06:58;;;;;;;5.95;5.00;;;;;;;3.24;75.64;95034.91;5034340;28;20814;-68
2022/02/01 02:09:23;;;;;;;11.55;6.95;;;;;;;3.23;76.22;95069.34;5052155;28;20108;-67
2022/02/01 02:14:49;;;;;;;8.95;6.95;;;;;;;3.17;76.07;95055.38;5043575;28;20049;-68
2022/02/01 02:17:15;;;;;;;4.68;4.03;;;;;;;2.96;76.67;95066.88;5053136;28;20029;-68
2022/02/01 02:19:40;;;;;;;9.95;8.82;;;;;;;3.55;75.55;95072.56;5035219;28;20155;-68
2022/02/01 02:22:07;;;;;;;11.05;7.60;;;;;;;3.70;75.15;95076.25;5053525;28;20027;-68
2022/02/01 02:24:40;;;;;;;11.65;7.60;;;;;;;3.46;75.29;95089.09;5053154;28;20032;-68
2022/02/01 02:27:06;;;;;;;13.05;9.68;;;;;;;3.67;75.25;95074.13;5053147;28;20086;-68
2022/02/01 02:29:32;;;;;;;6.90;5.47;;;;;;;3.03;76.86;95055.09;5052162;28;20516;-67
2022/02/01 02:31:58;;;;;;;11.88;7.47;;;;;;;3.70;74.13;95060.47;5052745;28;20039;-68
2022/02/01 02:34:24;;;;;;;4.30;3.90;;;;;;;2.78;76.63;95053.16;5053096;28;20120;-68
2022/02/01 02:37:01;;;;;;;11.18;7.40;;;;;;;3.28;75.75;95008.91;5052795;28;20116;-68
2022/02/01 02:39:32;;;;;;;12.25;9.05;;;;;;;3.73;74.40;95105.44;5052664;28;20370;-68
2022/02/01 02:42:26;;;;;;;17.23;11.05;;;;;;;3.54;75.03;95085.97;5052815;28;20021;-68
2022/02/01 02:45:05;;;;;;;15.73;9.60;;;;;;;3.60;75.50;95085.72;5052302;28;20112;-68
2022/02/01 02:47:31;;;;;;;16.02;10.52;;;;;;;3.44;75.15;95099.88;5052361;28;20111;-68
2022/02/01 02:49:57;;;;;;;12.23;8.88;;;;;;;3.29;75.57;95086.69;5052497;28;20075;-68
2022/02/01 02:52:26;;;;;;;14.68;8.75;;;;;;;3.81;74.62;95139.16;5052598;28;20478;-68
2022/02/01 02:54:51;;;;;;;12.38;7.47;;;;;;;3.73;75.07;95141.47;5052483;28;20434;-68
2022/02/01 02:57:17;;;;;;;5.80;4.60;;;;;;;3.30;75.95;95140.84;5052369;28;20104;-67
2022/02/01 02:59:42;;;;;;;12.80;8.82;;;;;;;3.71;75.87;95154.13;5051743;28;20473;-68
2022/02/01 03:02:08;;;;;;;8.38;4.68;;;;;;;3.26;75.94;95166.06;5052167;28;20104;-68
2022/02/01 03:04:35;;;;;;;13.55;10.90;;;;;;;3.70;73.68;95165.69;5052307;28;20021;-68
2022/02/01 03:07:02;;;;;;;25.30;15.23;;;;;;;4.01;73.80;95159.44;5052359;28;20033;-68
2022/02/01 03:09:28;;;;;;;18.00;11.20;;;;;;;3.93;73.73;95178.34;5052013;28;20381;-68
2022/02/01 03:12:01;;;;;;;22.23;13.95;;;;;;;3.98;72.49;95119.69;5052147;28;20032;-68
2022/02/01 03:19:46;;;;;;;9.93;7.10;;;;;;;3.37;74.05;95154.53;5051841;28;20017;-68
2022/02/01 03:20:09;;;;;;;17.88;11.50;;;;;;;3.80;74.36;95216.50;5051246;28;20033;-68
2022/02/01 03:22:34;;;;;;;6.13;5.03;;;;;;;3.21;75.24;95213.34;5051968;28;20040;-68
2022/02/01 03:25:01;;;;;;;10.77;7.47;;;;;;;3.24;74.83;95157.66;5051998;28;20665;-68
2022/02/01 03:27:27;;;;;;;7.97;6.35;;;;;;;3.13;74.65;95162.09;5034237;28;20021;-68
2022/02/01 03:29:53;;;;;;;10.90;7.95;;;;;;;2.96;74.22;95157.00;5051284;28;20028;-68
2022/02/01 03:32:22;;;;;;;20.48;11.60;;;;;;;3.45;73.68;95159.31;5051591;28;20033;-68
2022/02/01 03:34:52;;;;;;;10.40;6.65;;;;;;;2.90;74.22;95165.91;5051796;28;20093;-67
2022/02/01 03:37:18;;;;;;;15.18;10.52;;;;;;;3.48;72.40;95173.75;5051364;28;20489;-68
2022/02/01 03:39:43;;;;;;;10.98;7.80;;;;;;;3.08;73.34;95170.72;5051309;28;20428;-67
2022/02/01 03:42:10;;;;;;;14.70;10.25;;;;;;;3.23;73.73;95185.00;5033106;28;20032;-68
2022/02/01 03:44:36;;;;;;;12.95;9.77;;;;;;;3.06;74.03;95170.19;5038381;28;20504;-67
2022/02/01 03:47:01;;;;;;;10.50;8.75;;;;;;;3.43;72.74;95200.84;5051298;28;20021;-68
2022/02/01 03:49:47;;;;;;;7.30;6.45;;;;;;;3.48;75.10;95250.84;5051118;28;20036;-68
2022/02/01 03:52:12;;;;;;;15.05;10.40;;;;;;;3.47;71.34;95204.53;5049902;28;20064;-67
2022/02/01 03:54:40;;;;;;;13.10;7.82;;;;;;;3.43;71.05;95242.13;5032739;28;20519;-66
2022/02/01 03:57:08;;;;;;;12.70;8.55;;;;;;;3.24;71.76;95233.88;5051471;28;20388;-68
2022/02/01 03:59:33;;;;;;;14.10;10.55;;;;;;;3.38;71.33;95240.28;5051206;28;20109;-66
2022/02/01 04:02:01;;;;;;;10.10;7.95;;;;;;;3.55;70.31;95261.91;5050918;28;20108;-68
2022/02/01 04:04:28;;;;;;;10.77;9.35;;;;;;;3.68;70.16;95270.38;5033660;28;20033;-66
2022/02/01 04:06:54;;;;;;;10.60;7.55;;;;;;;3.06;71.14;95262.16;5051005;28;20025;-66
2022/02/01 04:09:21;;;;;;;10.23;8.15;;;;;;;3.27;71.61;95275.41;5050780;28;20499;-66
2022/02/01 04:11:47;;;;;;;12.63;8.48;;;;;;;3.88;70.42;95308.06;5050828;28;20021;-66
2022/02/01 04:14:16;;;;;;;10.15;7.30;;;;;;;3.30;71.47;95306.47;5050711;28;20021;-66
2022/02/01 04:16:42;;;;;;;10.35;9.35;;;;;;;3.89;70.21;95266.78;5051036;28;20019;-66
2022/02/01 04:19:07;;;;;;;12.32;9.88;;;;;;;4.45;68.45;95309.03;5051062;28;20459;-68
2022/02/01 04:21:33;;;;;;;8.75;6.43;;;;;;;3.49;70.45;95288.44;5050787;28;20033;-66
2022/02/01 04:23:58;;;;;;;11.25;7.55;;;;;;;3.21;71.53;95252.78;5050851;28;20040;-69
2022/02/01 04:26:24;;;;;;;10.77;9.27;;;;;;;3.46;70.83;95260.81;5050880;28;20104;-67
2022/02/01 04:28:49;;;;;;;8.63;5.97;;;;;;;3.22;71.48;95293.78;5050256;28;20036;-67
2022/02/01 04:31:15;;;;;;;11.13;9.65;;;;;;;4.26;69.97;95334.28;5050473;28;20029;-67
2022/02/01 04:33:40;;;;;;;11.90;7.70;;;;;;;3.70;69.02;95274.34;5050496;28;20056;-68
2022/02/01 04:36:06;;;;;;;7.40;6.70;;;;;;;3.30;69.04;95359.84;5032639;28;20612;-67
2022/02/01 04:38:33;;;;;;;5.65;4.50;;;;;;;3.56;70.29;95320.56;5050327;28;20033;-66
2022/02/01 04:40:59;;;;;;;4.15;3.47;;;;;;;3.11;69.48;95295.56;5050577;28;20465;-66
2022/02/01 04:43:24;;;;;;;9.88;7.57;;;;;;;3.25;69.40;95248.63;5051182;28;20031;-67
2022/02/01 04:45:49;;;;;;;8.85;6.60;;;;;;;3.21;70.51;95306.16;5050430;28;20100;-66
2022/02/01 04:48:15;;;;;;;5.43;4.85;;;;;;;3.27;71.12;95330.63;5051292;28;20033;-66
2022/02/01 04:50:41;;;;;;;6.43;5.30;;;;;;;3.25;69.34;95311.69;5051093;28;20025;-67
2022/02/01 04:53:06;;;;;;;6.53;4.82;;;;;;;3.16;69.63;95310.59;5051516;28;20079;-66
2022/02/01 04:55:54;;;;;;;7.68;5.78;;;;;;;3.21;68.94;95332.44;5050169;28;20058;-66
2022/02/01 04:58:17;;;;;;;9.05;7.93;;;;;;;3.33;69.05;95335.69;5050159;28;20036;-67
2022/02/01 05:00:43;;;;;;;9.15;7.20;;;;;;;3.55;69.55;95359.22;5049672;28;20033;-66
2022/02/01 05:03:08;;;;;;;10.73;7.88;;;;;;;3.50;69.57;95359.19;5032857;28;20029;-66
2022/02/01 05:05:34;;;;;;;11.60;6.43;;;;;;;3.35;70.31;95395.91;5050875;28;20025;-66
2022/02/01 05:08:07;;;;;;;10.05;7.18;;;;;;;3.39;70.17;95381.22;5050936;28;20469;-66
2022/02/01 05:10:33;;;;;;;10.82;7.25;;;;;;;3.12;71.03;95389.97;5051033;28;20037;-66
2022/02/01 05:15:51;;;;;;;12.63;9.75;;;;;;;3.58;69.91;95402.63;5050030;28;20120;-66
2022/02/01 05:18:21;;;;;;;7.35;5.18;;;;;;;3.15;70.74;95417.56;5050437;28;20059;-67
2022/02/01 05:23:11;;;;;;;10.95;9.50;;;;;;;3.54;69.67;95398.94;5050743;28;20032;-68
2022/02/01 05:25:37;;;;;;;10.80;9.05;;;;;;;3.44;70.53;95428.59;5049879;28;20037;-67
2022/02/01 05:28:03;;;;;;;13.00;9.73;;;;;;;4.21;67.77;95376.41;5032546;28;20041;-67
2022/02/01 05:30:29;;;;;;;12.98;8.95;;;;;;;3.89;69.52;95414.16;5049089;28;20048;-67
2022/02/01 05:32:55;;;;;;;13.25;9.10;;;;;;;3.94;68.89;95393.09;5051145;28;20033;-68
2022/02/01 05:35:21;;;;;;;14.07;11.15;;;;;;;4.50;69.08;95416.25;5049988;28;20068;-67
2022/02/01 05:37:47;;;;;;;16.23;10.10;;;;;;;4.73;68.15;95430.84;5032307;28;20033;-67
2022/02/01 05:40:14;;;;;;;12.60;10.32;;;;;;;4.24;68.74;95404.84;5049566;28;20028;-66
2022/02/01 05:43:05;;;;;;;15.63;11.18;;;;;;;4.70;67.41;95443.47;5050414;28;20029;-66
2022/02/01 05:45:26;;;;;;;14.02;11.20;;;;;;;5.21;66.85;95422.47;5049204;28;20079;-66
2022/02/01 05:47:52;;;;;;;11.70;10.18;;;;;;;5.17;67.67;95429.34;5050001;28;20557;-66
2022/02/01 05:50:18;;;;;;;14.57;8.70;;;;;;;5.07;68.43;95434.59;5031592;28;20024;-68
2022/02/01 05:52:44;;;;;;;14.90;10.00;;;;;;;5.40;67.52;95450.97;5050054;28;20389;-69
2022/02/01 05:55:13;;;;;;;16.00;9.93;;;;;;;5.44;65.84;95459.97;5050425;28;20447;-68
2022/02/01 05:57:39;;;;;;;15.68;9.18;;;;;;;5.05;66.62;95473.59;5050320;28;20045;-67
2022/02/01 06:00:07;;;;;;;15.07;8.32;;;;;;;4.27;67.64;95443.81;5032644;28;20064;-67
2022/02/01 06:02:32;;;;;;;11.20;8.23;;;;;;;4.64;67.33;95486.66;5049681;28;20029;-66
2022/02/01 06:04:58;;;;;;;9.13;8.13;;;;;;;4.74;67.44;95466.66;5049982;28;20446;-67
2022/02/01 06:07:23;;;;;;;10.55;7.22;;;;;;;4.14;68.02;95484.56;5035378;28;20436;-65
2022/02/01 06:09:49;;;;;;;6.95;6.07;;;;;;;3.81;69.70;95469.88;5053272;28;20063;-66
2022/02/01 06:12:14;;;;;;;10.30;5.40;;;;;;;4.10;68.29;95467.72;5035223;28;20561;-67
2022/02/01 06:14:40;;;;;;;8.13;7.20;;;;;;;4.38;68.38;95480.47;5052784;28;20025;-66
2022/02/01 06:17:06;;;;;;;9.85;8.13;;;;;;;4.67;67.04;95467.72;5034937;28;20475;-67
2022/02/01 06:19:32;;;;;;;10.48;5.35;;;;;;;3.80;68.16;95473.56;5035277;28;20056;-68
2022/02/01 06:21:58;;;;;;;7.50;6.80;;;;;;;4.37;68.52;95462.31;5035248;28;20044;-69
2022/02/01 06:24:23;;;;;;;10.88;7.88;;;;;;;4.72;67.95;95474.06;5053339;28;20025;-68
2022/02/01 06:26:49;;;;;;;8.93;7.18;;;;;;;4.22;68.06;95455.13;5053082;28;20013;-68
2022/02/01 06:29:15;;;;;;;10.20;7.05;;;;;;;4.25;69.91;95473.06;5053149;28;20029;-67
2022/02/01 06:31:40;;;;;;;7.55;6.85;;;;;;;3.87;69.84;95403.06;5052306;28;20025;-67
2022/02/01 06:34:05;;;;;;;7.72;6.93;;;;;;;3.89;70.71;95448.38;5052954;28;20035;-68
2022/02/01 06:36:31;;;;;;;9.15;8.25;;;;;;;4.22;70.66;95475.41;5052746;28;20096;-68
2022/02/01 06:38:56;;;;;;;6.63;5.72;;;;;;;3.35;72.61;95456.38;5052436;28;20082;-68
2022/02/01 06:41:22;;;;;;;8.23;6.47;;;;;;;3.67;73.15;95479.25;5052812;28;20044;-67
2022/02/01 06:43:47;;;;;;;10.52;7.30;;;;;;;3.62;73.28;95466.84;5052505;28;20036;-69
2022/02/01 06:46:13;;;;;;;14.07;9.02;;;;;;;4.12;72.27;95474.28;5046329;28;20028;-69
2022/02/01 06:48:39;;;;;;;6.53;4.95;;;;;;;3.43;72.08;95458.56;5052085;28;20032;-69
2022/02/01 06:51:04;;;;;;;9.88;6.70;;;;;;;3.96;72.48;95487.63;5052239;28;20032;-70
2022/02/01 06:53:35;;;;;;;4.70;3.88;;;;;;;3.40;73.22;95445.91;5034407;28;20120;-69
2022/02/01 06:56:09;;;;;;;7.10;4.72;;;;;;;3.45;73.92;95466.97;5052309;28;20021;-69
2022/02/01 06:58:35;;;;;;;8.55;4.70;;;;;;;3.63;73.80;95474.50;5052257;28;20067;-68
2022/02/01 07:01:02;;;;;;;3.28;2.72;;;;;;;3.39;73.94;95505.59;5052893;28;20068;-69
2022/02/01 07:03:27;;;;;;;6.93;4.70;;;;;;;3.95;72.60;95491.31;5034153;28;20666;-68
2022/02/01 07:05:54;;;;;;;6.47;3.78;;;;;;;3.98;73.14;95519.72;5052031;28;20032;-69
2022/02/01 07:08:20;;;;;;;5.05;4.55;;;;;;;3.81;72.76;95509.34;5052381;28;20492;-69
2022/02/01 07:10:45;;;;;;;4.90;2.92;;;;;;;3.13;73.78;95522.16;5033887;28;20025;-69
2022/02/01 07:13:10;;;;;;;6.05;3.05;;;;;;;3.41;74.37;95522.94;5052117;28;20061;-68
2022/02/01 07:15:36;;;;;;;5.57;2.55;;;;;;;3.02;74.40;95505.50;5051555;28;20033;-69
2022/02/01 07:18:01;;;;;;;5.90;3.47;;;;;;;3.50;73.30;95514.38;5050787;28;20633;-69
2022/02/01 07:20:27;;;;;;;7.70;2.95;;;;;;;3.33;73.04;95522.38;5051409;28;20103;-71
2022/02/01 07:22:52;;;;;;;8.40;3.28;;;;;;;3.14;72.74;95518.47;5050155;28;20112;-70
2022/02/01 07:25:32;;;;;;;9.57;4.57;;;;;;;3.39;73.06;95544.25;5051851;28;20193;-69
2022/02/01 07:28:02;;;;;;;6.15;3.58;;;;;;;2.76;73.05;95514.91;5051946;28;20033;-69
2022/02/01 07:30:27;;;;;;;12.15;3.33;;;;;;;3.41;71.96;95544.78;5051316;28;20056;-69
2022/02/01 07:32:58;;;;;;;8.05;3.42;;;;;;;3.26;71.72;95549.88;5051500;28;20111;-69
2022/02/01 07:35:25;;;;;;;11.65;3.30;;;;;;;3.00;71.10;95557.50;5051324;28;20025;-69
2022/02/01 07:37:52;;;;;;;10.40;3.92;;;;;;;2.83;72.00;95549.69;5051236;28;20025;-69
2022/02/01 07:40:18;;;;;;;16.75;4.43;;;;;;;3.09;71.45;95563.13;5051175;28;20044;-69
2022/02/01 07:42:43;;;;;;;9.10;3.20;;;;;;;2.95;70.69;95588.97;5033873;28;20091;-69
2022/02/01 07:45:10;;;;;;;9.32;2.30;;;;;;;2.80;70.50;95575.63;5051036;28;20072;-69
2022/02/01 07:47:36;;;;;;;16.40;3.20;;;;;;;3.15;70.04;95574.47;5034729;28;20025;-70
2022/02/01 07:50:03;;;;;;;15.02;2.92;;;;;;;3.07;69.43;95576.50;5051135;28;20037;-69
2022/02/01 07:52:28;;;;;;;16.02;3.55;;;;;;;2.95;69.04;95564.53;5051519;28;20033;-69
2022/02/01 07:54:54;;;;;;;15.70;3.53;;;;;;;2.73;70.41;95560.06;5051299;28;20033;-69
2022/02/01 07:57:19;;;;;;;21.42;3.45;;;;;;;2.75;69.92;95573.75;5051523;28;20028;-70
2022/02/01 07:59:44;;;;;;;14.90;2.47;;;;;;;2.96;68.73;95590.53;5033060;28;20024;-70
2022/02/01 08:02:18;;;;;;;19.02;4.05;;;;;;;2.87;70.04;95602.53;5051243;28;20028;-69
2022/02/01 08:04:48;;;;;;;12.45;3.47;;;;;;;2.52;70.36;95616.78;5051783;28;20029;-69
2022/02/01 08:07:14;;;;;;;17.13;4.07;;;;;;;3.27;68.96;95577.75;5051149;28;20103;-69
2022/02/01 08:09:46;;;;;;;14.63;3.92;;;;;;;2.89;69.21;95604.91;5051000;28;20437;-70
2022/02/01 08:12:30;;;;;;;12.13;3.35;;;;;;;2.68;68.97;95556.59;5050979;28;20538;-68
2022/02/01 08:17:52;;;;;;;15.73;3.05;;;;;;;2.96;69.28;95574.78;5050626;28;20441;-68
2022/02/01 08:20:25;;;;;;;13.85;3.15;;;;;;;2.62;69.75;95602.22;5050461;28;20027;-70
2022/02/01 08:25:24;;;;;;;17.73;4.13;;;;;;;3.07;69.06;95605.41;5051014;28;20086;-70
2022/02/01 08:27:50;;;;;;;17.92;3.78;;;;;;;3.45;67.40;95609.00;5050983;28;20512;-68
2022/02/01 08:30:16;;;;;;;27.35;5.30;;;;;;;3.72;67.18;95613.47;5050016;28;20465;-72
2022/02/01 08:32:43;;;;;;;18.90;3.60;;;;;;;3.43;66.58;95612.88;5032825;28;20029;-68
2022/02/01 08:35:09;;;;;;;12.70;2.88;;;;;;;2.56;66.57;95609.22;5050568;28;20060;-68
2022/02/01 08:37:34;;;;;;;20.13;4.20;;;;;;;2.93;67.23;95627.03;5050531;28;20068;-70
2022/02/01 08:40:00;;;;;;;18.63;4.68;;;;;;;3.42;65.31;95622.63;5032689;28;20055;-70
2022/02/01 08:42:25;;;;;;;15.10;3.90;;;;;;;3.15;65.98;95590.25;5050604;28;20495;-71
2022/02/01 08:44:52;;;;;;;13.65;3.03;;;;;;;2.55;65.79;95639.91;5032901;28;20388;-69
2022/02/01 08:47:18;;;;;;;8.85;2.92;;;;;;;2.57;65.64;95635.22;5050328;28;20020;-71
2022/02/01 08:49:44;;;;;;;15.98;3.10;;;;;;;2.88;65.78;95633.03;5031953;28;20028;-70
2022/02/01 08:52:14;;;;;;;12.80;3.17;;;;;;;2.56;65.55;95667.78;5050421;28;20412;-70
2022/02/01 08:54:40;;;;;;;17.52;2.90;;;;;;;2.93;65.29;95650.69;5050441;28;20021;-70
2022/02/01 08:57:24;;;;;;;10.65;3.30;;;;;;;2.73;66.35;95685.34;5032583;28;20595;-71
2022/02/01 09:00:04;;;;;;;13.18;2.60;;;;;;;2.56;67.83;95652.03;5050197;28;20029;-70
2022/02/01 09:02:29;;;;;;;9.63;2.63;;;;;;;2.74;66.05;95658.03;5048066;28;20025;-70
2022/02/01 09:04:55;;;;;;;12.82;2.67;;;;;;;3.01;65.82;95666.81;5050430;28;20032;-70
2022/02/01 09:07:21;;;;;;;14.23;3.30;;;;;;;2.94;65.85;95660.94;5050504;28;20025;-70
2022/02/01 09:09:47;;;;;;;11.30;2.42;;;;;;;2.45;65.77;95610.88;5050075;28;20041;-69
2022/02/01 09:12:14;;;;;;;5.13;1.83;;;;;;;3.10;64.64;95654.06;5050274;28;20025;-69
2022/02/01 09:14:39;;;;;;;10.75;2.33;;;;;;;3.04;64.37;95655.03;5032546;28;20528;-69
2022/02/01 09:17:07;;;;;;;15.88;2.42;;;;;;;3.22;64.16;95673.13;5049810;28;20060;-69
2022/02/01 09:19:33;;;;;;;17.45;3.00;;;;;;;3.75;62.43;95676.13;5031977;28;20059;-69
2022/02/01 09:21:59;;;;;;;15.52;2.53;;;;;;;3.35;63.84;95687.75;5050089;28;20033;-69
2022/02/01 09:24:25;;;;;;;9.45;3.35;;;;;;;3.88;62.63;95679.13;5032497;28;20040;-70
2022/02/01 09:26:51;;;;;;;11.13;2.72;;;;;;;3.79;63.17;95662.22;5032439;28;20037;-69
2022/02/01 09:29:19;;;;;;;13.50;2.17;;;;;;;3.03;64.34;95611.41;5032201;28;20086;-69
2022/02/01 09:31:45;;;;;;;19.25;2.78;;;;;;;3.35;63.77;95640.44;5049186;28;20385;-71
2022/02/01 09:34:10;;;;;;;5.97;2.10;;;;;;;3.56;63.08;95630.94;5049689;28;20029;-70
2022/02/01 09:36:35;;;;;;;14.82;3.30;;;;;;;3.88;61.86;95644.13;5032350;28;20504;-69
2022/02/01 09:39:01;;;;;;;15.98;3.28;;;;;;;3.99;62.38;95656.34;5032004;28;20041;-69
2022/02/01 09:41:28;;;;;;;8.50;2.28;;;;;;;3.65;62.73;95663.66;5052246;28;20025;-69
2022/02/01 09:43:54;;;;;;;17.88;3.75;;;;;;;4.25;61.10;95628.41;5036020;28;20068;-69
2022/02/01 09:46:21;;;;;;;14.35;2.40;;;;;;;4.12;60.68;95674.38;5036239;28;20053;-70
2022/02/01 09:48:47;;;;;;;9.85;2.30;;;;;;;4.03;62.34;95683.75;5035487;28;20025;-70
2022/02/01 09:51:13;;;;;;;10.98;2.92;;;;;;;3.93;63.54;95665.22;5035734;28;20097;-70
2022/02/01 09:53:38;;;;;;;10.35;1.80;;;;;;;3.92;61.77;95672.34;5035800;28;20029;-70
2022/02/01 09:56:04;;;;;;;8.60;1.80;;;;;;;3.97;61.48;95681.34;5053477;28;20114;-70
2022/02/01 09:58:35;;;;;;;15.45;2.45;;;;;;;4.37;61.08;95673.00;5053428;28;20599;-70
2022/02/01 10:01:21;;;;;;;13.30;2.27;;;;;;;4.59;59.02;95675.53;5053316;28;20116;-70
2022/02/01 10:04:00;;;;;;;16.55;3.13;;;;;;;4.57;59.55;95681.06;5035847;28;20540;-70
2022/02/01 10:06:32;;;;;;;11.35;2.72;;;;;;;4.26;60.01;95706.38;5035775;28;20019;-70
2022/02/01 10:09:07;;;;;;;;;;;;;;;3.84;60.89;95693.84;5054029;28;20032;-70
2022/02/01 10:11:41;;;;;;;6.57;1.80;;;;;;;3.58;61.57;95671.75;5035382;28;19944;-70
2022/02/01 10:14:09;;;;;;;8.57;2.38;;;;;;;3.71;61.14;95651.34;5035624;28;20511;-69
2022/02/01 10:16:51;;;;;;;8.73;1.92;;;;;;;3.47;62.47;95698.94;5042021;28;20053;-70
2022/02/01 10:19:19;;;;;;;15.27;2.33;;;;;;;4.15;61.25;95691.53;5035460;28;20021;-71
2022/02/01 10:21:58;;;;;;;13.45;1.60;;;;;;;3.49;62.50;95717.13;5053494;28;20429;-70
2022/02/01 10:24:35;;;;;;;12.95;2.30;;;;;;;3.67;61.65;95650.25;5034943;28;20033;-71
2022/02/01 10:27:13;;;;;;;11.90;1.70;;;;;;;3.16;62.72;95647.03;5035715;28;20758;-70
2022/02/01 10:29:40;;;;;;;4.15;1.40;;;;;;;3.26;62.70;95673.44;5035196;28;20029;-70
2022/02/01 10:32:16;;;;;;;7.85;2.28;;;;;;;4.20;61.07;95680.22;5052140;28;20028;-69
2022/02/01 10:34:44;;;;;;;13.30;2.95;;;;;;;4.86;58.83;95664.91;5052868;28;20043;-70
2022/02/01 10:37:25;;;;;;;11.00;2.45;;;;;;;4.54;59.65;95684.19;5053062;28;20021;-70
2022/02/01 10:40:02;;;;;;;6.60;1.88;;;;;;;3.94;61.09;95702.88;5034917;28;20017;-71
2022/02/01 10:42:28;;;;;;;10.63;2.75;;;;;;;3.67;61.49;95653.66;5052605;28;20079;-70
2022/02/01 10:44:56;;;;;;;10.40;2.17;;;;;;;3.69;60.53;95619.22;5052752;28;20029;-71
2022/02/01 10:47:42;;;;;;;7.70;1.83;;;;;;;4.02;60.62;95666.38;5052018;28;20028;-70
2022/02/01 10:50:09;;;;;;;5.30;1.50;;;;;;;4.14;59.89;95663.59;5034694;28;20116;-70
2022/02/01 10:52:36;;;;;;;11.98;2.15;;;;;;;3.80;60.29;95619.06;5034206;28;20025;-70
2022/02/01 10:55:04;;;;;;;13.20;2.60;;;;;;;4.54;58.38;95641.25;5052467;28;20021;-72
2022/02/01 10:57:29;;;;;;;10.70;1.77;;;;;;;3.98;59.49;95657.38;5052404;28;20501;-71
2022/02/01 10:59:55;;;;;;;9.25;2.45;;;;;;;4.81;58.03;95646.41;5052279;28;20029;-70
2022/02/01 11:02:23;;;;;;;10.02;2.45;;;;;;;4.84;56.36;95638.03;5051770;28;20052;-70
2022/02/01 11:04:52;;;;;;;6.32;1.60;;;;;;;4.24;57.51;95628.66;5034421;28;20115;-72
2022/02/01 11:07:17;;;;;;;4.55;1.83;;;;;;;3.65;57.27;95614.47;5052396;28;20108;-72
2022/02/01 11:09:43;;;;;;;7.85;1.60;;;;;;;4.03;57.93;95606.63;5034190;28;20033;-71
2022/02/01 11:12:11;;;;;;;10.32;1.67;;;;;;;4.61;55.59;95611.03;5034403;28;20036;-70
2022/02/01 11:14:46;;;;;;;10.38;1.60;;;;;;;3.49;58.12;95641.66;5034089;28;20067;-71
2022/02/01 11:17:17;;;;;;;10.15;2.17;;;;;;;4.87;55.86;95651.50;5051751;28;20024;-71
2022/02/01 11:19:56;;;;;;;4.78;1.50;;;;;;;4.07;58.98;95641.94;5051823;28;20473;-72
2022/02/01 11:22:36;;;;;;;3.78;1.90;;;;;;;4.95;57.01;95639.66;5052167;28;20035;-73
2022/02/01 11:25:26;;;;;;;6.15;2.38;;;;;;;5.07;56.44;95624.44;5051964;28;20428;-71
2022/02/01 11:30:40;;;;;;;8.48;1.75;;;;;;;4.57;58.24;95636.28;5051650;28;20521;-71
2022/02/01 11:33:08;;;;;;;2.78;1.35;;;;;;;4.59;58.95;95618.38;5051577;28;20099;-73
2022/02/01 11:35:34;;;;;;;4.13;1.17;;;;;;;4.26;58.31;95608.16;5051441;28;20524;-70
2022/02/01 11:38:04;;;;;;;3.15;1.40;;;;;;;4.62;58.80;95617.88;5051523;28;20048;-71
2022/02/01 11:40:42;;;;;;;4.45;1.83;;;;;;;4.67;58.89;95607.34;5051434;28;20033;-69
2022/02/01 11:43:12;;;;;;;6.30;1.42;;;;;;;4.51;59.32;95610.16;5033706;28;20166;-69
2022/02/01 11:45:50;;;;;;;3.65;1.33;;;;;;;4.32;58.00;95521.00;5033670;28;20025;-71
2022/02/01 11:48:23;;;;;;;7.03;1.95;;;;;;;5.38;56.16;95590.28;5047717;28;20024;-72
2022/02/01 11:50:53;;;;;;;7.00;1.75;;;;;;;4.67;57.97;95591.56;5051308;28;20036;-72
2022/02/01 11:53:31;;;;;;;10.15;3.58;;;;;;;5.22;56.93;95555.16;5051196;28;20025;-72
2022/02/01 11:55:58;;;;;;;3.67;1.45;;;;;;;5.05;58.54;95573.00;5051188;28;20013;-71
2022/02/01 11:58:27;;;;;;;7.65;1.80;;;;;;;5.24;56.75;95566.22;5050894;28;20397;-71
2022/02/01 12:00:55;;;;;;;10.05;2.60;;;;;;;5.40;56.43;95573.13;5050680;28;20473;-72
2022/02/01 12:03:26;;;;;;;8.45;1.77;;;;;;;4.56;57.05;95529.31;5050659;28;20029;-72
2022/02/01 12:05:59;;;;;;;4.57;1.80;;;;;;;4.13;57.61;95527.72;5051371;28;20017;-70
2022/02/01 12:08:31;;;;;;;3.20;1.73;;;;;;;4.89;56.67;95559.75;5033329;28;20424;-70
2022/02/01 12:11:01;;;;;;;5.50;1.85;;;;;;;4.89;57.23;95545.78;5051100;28;20051;-70
2022/02/01 12:13:27;;;;;;;4.78;1.45;;;;;;;5.11;55.52;95487.59;5051171;28;20036;-71
2022/02/01 12:15:57;;;;;;;4.28;1.88;;;;;;;6.09;54.06;95526.22;5050605;28;20052;-70
2022/02/01 12:19:01;;;;;;;6.68;2.13;;;;;;;6.47;54.08;95520.34;5047496;28;20796;-70
2022/02/01 12:21:29;;;;;;;7.35;1.35;;;;;;;5.63;54.50;95521.72;5051101;28;20021;-70
2022/02/01 12:23:57;;;;;;;7.07;1.90;;;;;;;5.63;55.78;95497.16;5050780;28;20025;-70
2022/02/01 12:26:32;;;;;;;4.20;1.38;;;;;;;5.17;56.27;95497.13;5050674;28;20535;-69
2022/02/01 12:28:59;;;;;;;3.85;1.60;;;;;;;6.14;55.16;95492.69;5032764;28;20424;-70
2022/02/01 12:31:27;;;;;;;5.82;1.70;;;;;;;7.19;53.07;95481.19;5050678;28;20346;-70
2022/02/01 12:33:56;;;;;;;7.85;2.08;;;;;;;5.50;56.00;95485.28;5050921;28;20052;-70
2022/02/01 12:36:28;;;;;;;7.55;1.95;;;;;;;5.71;55.50;95470.25;5050923;28;20017;-70
2022/02/01 12:39:14;;;;;;;4.72;1.50;;;;;;;4.85;58.34;95484.09;5050633;28;20604;-70
2022/02/01 12:41:50;;;;;;;2.65;0.93;;;;;;;4.79;58.53;95475.38;5051018;28;20076;-69
2022/02/01 12:46:53;;;;;;;8.73;2.03;;;;;;;5.15;57.67;95476.25;5050065;28;20021;-69
2022/02/01 12:49:39;;;;;;;3.45;1.75;;;;;;;4.78;59.49;95502.78;5049755;28;20033;-71
2022/02/01 12:52:23;;;;;;;5.80;2.13;;;;;;;5.11;58.28;95463.84;5050030;28;20397;-70
2022/02/01 12:55:04;;;;;;;4.95;1.60;;;;;;;4.82;59.22;95442.47;5050272;28;20024;-70
2022/02/01 12:57:32;;;;;;;8.77;1.88;;;;;;;5.63;57.66;95468.94;5050177;28;20033;-70
2022/02/01 13:00:00;;;;;;;4.18;2.25;;;;;;;5.30;58.87;95472.06;5049962;28;20524;-71
2022/02/01 13:02:28;;;;;;;5.60;1.88;;;;;;;4.26;61.49;95468.59;5050102;28;20025;-71
2022/02/01 13:04:56;;;;;;;4.57;1.42;;;;;;;4.67;60.38;95456.38;5050437;28;20139;-72
2022/02/01 13:21:06;;;;;;;6.90;2.05;;;;;;;5.60;56.76;95447.56;5054479;28;20025;-72
2022/02/01 13:23:44;;;;;;;4.90;1.58;;;;;;;5.55;56.85;95421.16;5054159;28;20020;-72